Time;durP1;ratioP1;P1;durP2;ratioP2;P2;SDS_P1;SDS_P2;PMS_P1;PMS_P2;Temp;Humidity;BMP_temperature;BMP_pressure;BME280_temperature;BME280_humidity;BME280_pressure;Samples;Min_cycle;Max_cycle;Signal;HPM_P1;HPM_P2
2022/03/14 00:01:22;;;;;;;19.75;11.45;;;8.60;60.70;;;;;;5065566;28;20495;-72
2022/03/14 00:03:50;;;;;;;15.80;10.80;;;8.60;61.00;;;;;;5053869;28;20040;-72
2022/03/14 00:06:17;;;;;;;16.05;10.82;;;8.70;60.80;;;;;;5066817;28;20396;-72
2022/03/14 00:08:44;;;;;;;17.30;11.07;;;8.60;61.70;;;;;;5048501;28;20084;-72
2022/03/14 00:11:14;;;;;;;16.17;10.90;;;8.60;61.50;;;;;;5066476;28;20047;-71
2022/03/14 00:13:46;;;;;;;18.88;11.05;;;8.60;61.60;;;;;;5069371;28;20090;-72
2022/03/14 00:16:19;;;;;;;19.45;10.98;;;8.50;62.30;;;;;;5051581;28;20103;-72
2022/03/14 00:18:51;;;;;;;18.17;11.02;;;8.50;62.60;;;;;;5082289;28;20040;-72
2022/03/14 00:21:20;;;;;;;17.35;11.48;;;8.50;63.10;;;;;;5068958;28;20056;-71
2022/03/14 00:23:46;;;;;;;20.80;12.13;;;8.50;62.80;;;;;;5069179;28;20075;-71
2022/03/14 00:26:12;;;;;;;18.80;11.70;;;8.60;62.80;;;;;;5049142;28;20045;-72
2022/03/14 00:28:38;;;;;;;19.42;11.93;;;8.60;62.90;;;;;;5041618;28;20053;-71
2022/03/14 00:31:04;;;;;;;18.67;11.60;;;8.60;63.40;;;;;;5042505;28;20127;-71
2022/03/14 00:33:30;;;;;;;18.40;11.43;;;8.60;64.00;;;;;;5067731;28;20131;-72
2022/03/14 00:35:56;;;;;;;17.27;11.50;;;8.60;64.90;;;;;;5031060;28;20060;-72
2022/03/14 00:38:25;;;;;;;19.20;11.85;;;8.60;64.50;;;;;;5068740;28;20037;-72
2022/03/14 00:40:51;;;;;;;21.35;12.23;;;8.60;64.80;;;;;;5049257;28;20056;-71
2022/03/14 00:43:18;;;;;;;19.92;12.02;;;8.60;65.20;;;;;;5067222;28;20538;-72
2022/03/14 00:45:45;;;;;;;20.95;11.38;;;8.60;65.50;;;;;;5068902;28;20131;-71
2022/03/14 00:48:11;;;;;;;17.95;12.10;;;8.60;65.90;;;;;;5067628;28;20416;-71
2022/03/14 00:50:37;;;;;;;20.30;11.98;;;8.60;66.20;;;;;;5068300;28;20057;-72
2022/03/14 00:53:03;;;;;;;21.50;11.68;;;8.50;66.00;;;;;;5069418;28;20048;-72
2022/03/14 00:55:29;;;;;;;17.58;12.10;;;8.90;67.50;;;;;;5083291;28;20052;-71
2022/03/14 00:57:55;;;;;;;18.35;11.60;;;8.50;68.50;;;;;;5068591;28;20050;-71
2022/03/14 01:00:21;;;;;;;19.77;11.48;;;8.40;69.50;;;;;;5034447;28;20063;-71
2022/03/14 01:02:48;;;;;;;25.40;12.18;;;8.30;70.40;;;;;;5069136;28;20044;-71
2022/03/14 01:05:14;;;;;;;20.90;12.15;;;8.30;71.90;;;;;;5068663;28;20041;-71
2022/03/14 01:07:40;;;;;;;19.58;11.85;;;8.20;72.30;;;;;;5042294;28;20032;-71
2022/03/14 01:10:07;;;;;;;19.15;11.43;;;8.10;72.60;;;;;;5070256;28;20546;-72
2022/03/14 01:12:32;;;;;;;19.10;11.57;;;8.00;73.20;;;;;;5086452;28;20049;-72
2022/03/14 01:14:59;;;;;;;20.90;11.30;;;8.00;76.30;;;;;;5071966;28;20111;-71
2022/03/14 01:17:25;;;;;;;16.88;10.40;;;7.90;78.70;;;;;;5070317;28;20044;-71
2022/03/14 01:19:51;;;;;;;18.25;11.60;;;7.80;80.10;;;;;;5071925;28;20036;-71
2022/03/14 01:22:17;;;;;;;21.67;11.85;;;7.30;79.80;;;;;;5091364;28;21371;-71
2022/03/14 01:24:43;;;;;;;20.65;11.98;;;7.80;81.20;;;;;;5074579;28;20392;-71
2022/03/14 01:27:10;;;;;;;19.77;12.00;;;7.80;84.10;;;;;;5075163;28;20083;-71
2022/03/14 01:29:37;;;;;;;19.17;12.10;;;7.80;84.40;;;;;;5056886;28;20055;-70
2022/03/14 01:32:04;;;;;;;23.50;13.13;;;7.70;86.20;;;;;;5074556;28;20052;-71
2022/03/14 01:34:30;;;;;;;22.08;12.88;;;7.60;90.30;;;;;;5057265;28;20045;-71
2022/03/14 01:36:56;;;;;;;20.40;12.40;;;7.50;92.00;;;;;;5057702;28;20048;-71
2022/03/14 01:39:23;;;;;;;21.73;12.60;;;7.50;94.30;;;;;;5071938;28;20028;-71
2022/03/14 01:41:49;;;;;;;20.90;12.02;;;7.60;96.00;;;;;;5054518;28;20181;-71
2022/03/14 01:44:15;;;;;;;20.15;11.60;;;7.70;98.50;;;;;;5070766;28;20527;-72
2022/03/14 01:46:42;;;;;;;20.30;12.43;;;7.70;99.90;;;;;;5054625;28;20472;-72
2022/03/14 01:49:09;;;;;;;22.65;12.27;;;7.80;99.90;;;;;;5055100;28;20055;-72
2022/03/14 01:51:35;;;;;;;20.67;12.10;;;7.90;99.90;;;;;;5051220;28;20040;-72
2022/03/14 01:54:01;;;;;;;19.63;11.82;;;7.90;99.90;;;;;;5089878;28;20048;-72
2022/03/14 01:56:28;;;;;;;22.10;12.93;;;7.90;99.90;;;;;;5053061;28;20051;-72
2022/03/14 01:58:55;;;;;;;18.90;12.43;;;7.90;99.90;;;;;;5071075;28;20040;-72
2022/03/14 02:01:21;;;;;;;21.58;13.10;;;7.70;99.90;;;;;;5067289;28;20064;-72
2022/03/14 02:03:50;;;;;;;23.50;13.55;;;7.60;99.90;;;;;;5070346;28;20093;-72
2022/03/14 02:06:15;;;;;;;23.20;12.80;;;7.60;99.90;;;;;;5056321;28;20063;-72
2022/03/14 02:08:41;;;;;;;20.17;13.10;;;7.50;99.90;;;;;;5083078;28;20460;-72
2022/03/14 02:11:07;;;;;;;21.58;12.20;;;7.60;99.90;;;;;;5051805;28;20392;-74
2022/03/14 02:13:33;;;;;;;20.05;12.48;;;7.50;99.90;;;;;;5051610;28;20043;-73
2022/03/14 02:15:59;;;;;;;20.27;12.50;;;7.60;99.90;;;;;;5071295;28;20546;-73
2022/03/14 02:18:25;;;;;;;20.80;12.38;;;7.50;99.90;;;;;;5067207;28;20071;-73
2022/03/14 02:20:51;;;;;;;19.33;11.88;;;7.60;99.90;;;;;;5059561;28;20385;-73
2022/03/14 02:23:17;;;;;;;22.23;12.93;;;7.50;99.90;;;;;;5085616;28;20045;-73
2022/03/14 02:25:52;;;;;;;23.63;13.15;;;7.50;99.90;;;;;;5071430;28;20094;-73
2022/03/14 02:28:22;;;;;;;24.98;13.75;;;7.10;99.90;;;;;;5075618;28;20385;-73
2022/03/14 02:30:50;;;;;;;24.65;14.20;;;7.60;99.90;;;;;;5072793;28;20044;-74
2022/03/14 02:33:16;;;;;;;21.85;12.35;;;7.50;99.90;;;;;;5051825;28;20044;-73
2022/03/14 02:35:42;;;;;;;18.20;11.68;;;7.60;99.90;;;;;;5071060;28;20041;-73
2022/03/14 02:38:14;;;;;;;19.27;11.32;;;7.70;99.90;;;;;;5069280;28;20044;-73
2022/03/14 02:40:43;;;;;;;21.70;12.43;;;7.90;99.90;;;;;;5067507;28;20077;-73
2022/03/14 02:43:09;;;;;;;18.50;10.95;;;8.00;99.90;;;;;;5082047;28;20040;-73
2022/03/14 02:45:35;;;;;;;18.15;10.55;;;8.00;99.90;;;;;;5053061;28;20043;-73
2022/03/14 02:48:01;;;;;;;20.45;11.35;;;8.10;99.90;;;;;;5088251;28;20047;-73
2022/03/14 02:50:28;;;;;;;20.00;11.25;;;8.20;99.90;;;;;;5069644;28;20052;-73
2022/03/14 02:52:54;;;;;;;17.95;10.75;;;8.20;99.90;;;;;;5065932;28;20048;-73
2022/03/14 02:55:23;;;;;;;17.90;10.68;;;8.20;99.90;;;;;;5071342;28;20427;-73
2022/03/14 02:57:49;;;;;;;17.30;9.88;;;8.20;99.90;;;;;;5067605;28;20157;-73
2022/03/14 03:00:15;;;;;;;19.20;10.85;;;8.30;99.90;;;;;;5071542;28;20733;-73
2022/03/14 03:02:42;;;;;;;18.63;10.65;;;8.40;99.90;;;;;;5082222;28;20519;-71
2022/03/14 03:05:11;;;;;;;16.52;10.00;;;8.40;99.90;;;;;;5062304;28;20516;-71
2022/03/14 03:07:37;;;;;;;14.68;9.77;;;8.40;99.90;;;;;;5068473;28;20033;-71
2022/03/14 03:10:04;;;;;;;16.30;8.93;;;7.70;99.90;;;;;;5035337;28;20537;-72
2022/03/14 03:12:32;;;;;;;16.30;10.20;;;8.50;99.90;;;;;;5066285;28;20038;-72
2022/03/14 03:14:58;;;;;;;16.08;9.80;;;7.60;99.90;;;;;;5052973;28;20538;-73
2022/03/14 03:17:27;;;;;;;18.00;9.55;;;8.30;99.90;;;;;;5049850;28;20075;-73
2022/03/14 03:19:53;;;;;;;16.65;10.57;;;8.60;99.90;;;;;;5050038;28;20040;-72
2022/03/14 03:22:19;;;;;;;15.73;9.40;;;8.60;99.90;;;;;;5053420;28;20052;-72
2022/03/14 03:24:45;;;;;;;13.70;9.02;;;8.60;99.90;;;;;;5053019;28;20041;-72
2022/03/14 03:27:10;;;;;;;17.50;10.00;;;8.60;99.90;;;;;;5049347;28;20039;-72
2022/03/14 03:29:36;;;;;;;15.52;9.60;;;8.60;99.90;;;;;;5070000;28;20044;-72
2022/03/14 03:32:02;;;;;;;15.15;9.35;;;8.70;99.90;;;;;;5054012;28;20036;-72
2022/03/14 03:34:28;;;;;;;15.70;9.73;;;8.70;99.90;;;;;;5051656;28;20400;-72
2022/03/14 03:36:54;;;;;;;15.70;10.27;;;8.80;99.90;;;;;;5071894;28;20050;-72
2022/03/14 03:39:20;;;;;;;15.20;9.38;;;8.70;99.90;;;;;;5065722;28;20477;-72
2022/03/14 03:41:46;;;;;;;15.77;9.68;;;8.80;99.90;;;;;;5050671;28;20123;-72
2022/03/14 03:44:12;;;;;;;15.18;9.73;;;8.80;99.90;;;;;;5070499;28;20036;-73
2022/03/14 03:46:38;;;;;;;16.10;9.63;;;8.80;99.90;;;;;;5051298;28;20473;-71
2022/03/14 03:49:03;;;;;;;16.13;9.60;;;8.80;99.90;;;;;;5022419;28;20036;-72
2022/03/14 03:51:29;;;;;;;15.20;9.18;;;8.80;99.90;;;;;;5070426;28;20457;-72
2022/03/14 03:53:55;;;;;;;15.35;9.95;;;8.80;99.90;;;;;;5068137;28;20048;-72
2022/03/14 03:56:21;;;;;;;15.88;9.60;;;8.90;99.90;;;;;;5025402;28;20131;-72
2022/03/14 03:58:47;;;;;;;19.02;9.80;;;8.90;99.90;;;;;;5047624;28;20127;-72
2022/03/14 04:01:18;;;;;;;15.70;9.88;;;8.90;99.90;;;;;;5068084;28;20481;-72
2022/03/14 04:03:49;;;;;;;17.77;10.35;;;9.00;99.90;;;;;;5067289;28;20087;-74
2022/03/14 04:06:19;;;;;;;15.65;9.73;;;8.90;99.90;;;;;;5052696;28;20044;-72
2022/03/14 04:08:46;;;;;;;15.57;9.65;;;8.90;99.90;;;;;;5067545;28;20393;-72
2022/03/14 04:11:12;;;;;;;14.23;9.63;;;8.90;99.90;;;;;;5053688;28;20047;-72
2022/03/14 04:13:37;;;;;;;14.55;9.45;;;9.00;99.90;;;;;;5032619;28;20124;-72
2022/03/14 04:16:03;;;;;;;16.63;9.25;;;9.00;99.90;;;;;;5068422;28;20040;-73
2022/03/14 04:18:29;;;;;;;15.32;9.32;;;9.00;99.90;;;;;;5050138;28;20127;-73
2022/03/14 04:20:55;;;;;;;16.52;9.73;;;9.00;99.90;;;;;;5035057;28;20556;-72
2022/03/14 04:23:21;;;;;;;15.60;9.63;;;8.90;99.90;;;;;;5063541;28;20126;-72
2022/03/14 04:25:47;;;;;;;15.52;9.57;;;9.00;99.90;;;;;;5062650;28;20477;-73
2022/03/14 04:28:15;;;;;;;14.13;8.90;;;9.00;99.90;;;;;;5013995;28;20473;-72
2022/03/14 04:30:41;;;;;;;15.82;8.98;;;9.00;99.90;;;;;;5044591;28;20052;-72
2022/03/14 04:33:08;;;;;;;12.90;8.65;;;9.60;99.90;;;;;;5068170;28;20068;-74
2022/03/14 04:35:36;;;;;;;13.48;8.38;;;9.10;99.90;;;;;;5065604;28;20045;-72
2022/03/14 04:38:03;;;;;;;11.70;8.05;;;9.10;99.90;;;;;;5049383;28;20036;-71
2022/03/14 04:40:29;;;;;;;13.40;8.70;;;9.10;99.90;;;;;;5067710;28;20049;-73
2022/03/14 04:42:54;;;;;;;13.15;8.85;;;9.10;99.90;;;;;;5065873;28;20094;-72
2022/03/14 04:45:20;;;;;;;14.07;8.18;;;9.10;99.90;;;;;;5052984;28;20423;-72
2022/03/14 04:47:46;;;;;;;14.15;8.57;;;9.10;99.90;;;;;;5049343;28;20541;-72
2022/03/14 04:50:14;;;;;;;12.75;8.27;;;9.10;99.90;;;;;;5066018;28;20062;-75
2022/03/14 04:52:40;;;;;;;11.65;7.90;;;9.10;99.90;;;;;;5083920;28;20072;-72
2022/03/14 04:55:06;;;;;;;13.35;7.63;;;9.10;99.90;;;;;;5067593;28;20080;-73
2022/03/14 04:57:32;;;;;;;10.82;7.15;;;9.10;99.90;;;;;;5050750;28;20579;-72
2022/03/14 04:59:58;;;;;;;14.15;7.47;;;9.10;99.90;;;;;;5049919;28;20055;-72
2022/03/14 05:02:24;;;;;;;13.43;7.10;;;9.10;99.90;;;;;;5052406;28;20111;-72
2022/03/14 05:04:51;;;;;;;11.82;7.22;;;9.10;99.90;;;;;;5068013;28;20914;-72
2022/03/14 05:07:17;;;;;;;10.52;6.82;;;9.10;99.90;;;;;;5054937;28;20107;-72
2022/03/14 05:09:43;;;;;;;11.02;6.38;;;9.20;99.90;;;;;;5052617;28;20044;-72
2022/03/14 05:12:11;;;;;;;13.23;7.00;;;9.10;99.90;;;;;;5082006;28;20044;-71
2022/03/14 05:14:39;;;;;;;10.25;6.38;;;9.10;99.90;;;;;;5077321;28;20036;-72
2022/03/14 05:17:05;;;;;;;9.57;5.93;;;9.10;99.90;;;;;;5067226;28;20040;-72
2022/03/14 05:19:31;;;;;;;8.30;5.22;;;9.20;99.90;;;;;;5059601;28;20052;-72
2022/03/14 05:21:56;;;;;;;10.48;6.00;;;9.20;99.90;;;;;;5051480;28;20083;-72
2022/03/14 05:24:23;;;;;;;9.75;6.25;;;9.20;99.90;;;;;;5069938;28;20040;-72
2022/03/14 05:26:53;;;;;;;8.95;6.00;;;9.20;99.90;;;;;;5077150;28;20032;-72
2022/03/14 05:29:20;;;;;;;9.05;5.78;;;9.20;99.90;;;;;;5051270;28;20040;-72
2022/03/14 05:31:46;;;;;;;9.30;5.95;;;9.10;99.90;;;;;;5063797;28;20097;-72
2022/03/14 05:34:12;;;;;;;8.90;6.00;;;9.10;99.90;;;;;;5068576;28;20048;-72
2022/03/14 05:36:40;;;;;;;12.32;5.95;;;9.10;99.90;;;;;;5069081;28;20059;-72
2022/03/14 05:39:07;;;;;;;9.05;6.15;;;9.10;99.90;;;;;;5064458;28;20049;-72
2022/03/14 05:41:33;;;;;;;10.10;5.85;;;9.10;99.90;;;;;;5048252;28;20064;-71
2022/03/14 05:43:59;;;;;;;10.07;5.60;;;9.00;99.90;;;;;;5063295;28;20032;-72
2022/03/14 05:46:24;;;;;;;8.90;5.70;;;9.00;99.90;;;;;;5066068;28;20040;-72
2022/03/14 05:48:50;;;;;;;9.43;6.20;;;9.00;99.90;;;;;;5061414;28;20059;-72
2022/03/14 05:51:16;;;;;;;10.52;6.03;;;8.40;99.90;;;;;;5069032;28;20051;-72
2022/03/14 05:53:42;;;;;;;10.52;5.78;;;9.00;99.90;;;;;;5049613;28;20041;-73
2022/03/14 05:56:08;;;;;;;9.30;6.38;;;9.00;99.90;;;;;;5047707;28;20060;-73
2022/03/14 05:58:34;;;;;;;9.05;6.25;;;8.90;99.90;;;;;;5067862;28;20505;-73
2022/03/14 06:01:00;;;;;;;8.98;5.93;;;8.90;99.90;;;;;;5055096;28;20064;-73
2022/03/14 06:03:26;;;;;;;11.40;6.25;;;8.90;99.90;;;;;;5067690;28;20155;-72
2022/03/14 06:05:52;;;;;;;9.73;6.30;;;8.80;99.90;;;;;;5067704;28;20143;-72
2022/03/14 06:08:18;;;;;;;10.10;6.00;;;8.80;99.90;;;;;;5055825;28;20048;-72
2022/03/14 06:10:46;;;;;;;9.45;5.75;;;8.80;99.90;;;;;;5050762;28;20045;-72
2022/03/14 06:13:13;;;;;;;10.73;5.97;;;8.80;99.90;;;;;;5069652;28;20048;-72
2022/03/14 06:15:39;;;;;;;9.75;5.80;;;8.80;99.90;;;;;;5052517;28;20119;-72
2022/03/14 06:18:06;;;;;;;10.88;6.32;;;8.90;99.90;;;;;;5056543;28;20052;-72
2022/03/14 06:20:32;;;;;;;9.60;5.80;;;8.80;99.90;;;;;;5064899;28;20154;-72
2022/03/14 06:22:58;;;;;;;11.23;6.78;;;8.80;99.90;;;;;;5035710;28;20098;-72
2022/03/14 06:25:24;;;;;;;11.27;6.20;;;8.80;99.90;;;;;;5071868;28;20052;-72
2022/03/14 06:27:50;;;;;;;11.55;5.88;;;8.80;99.90;;;;;;5051044;28;20044;-72
2022/03/14 06:30:16;;;;;;;10.57;5.93;;;8.80;99.90;;;;;;5085966;28;20067;-72
2022/03/14 06:32:43;;;;;;;10.93;6.43;;;8.70;99.90;;;;;;5068520;28;20473;-72
2022/03/14 06:35:13;;;;;;;10.90;6.45;;;8.70;99.90;;;;;;5069430;28;20557;-72
2022/03/14 06:37:39;;;;;;;13.23;7.03;;;8.70;99.90;;;;;;5068693;28;20044;-72
2022/03/14 06:40:06;;;;;;;11.80;7.22;;;8.60;99.90;;;;;;5068855;28;20088;-72
2022/03/14 06:42:34;;;;;;;11.13;7.18;;;8.60;99.90;;;;;;5071407;28;20059;-72
2022/03/14 06:45:02;;;;;;;16.55;7.47;;;8.70;99.90;;;;;;5084918;28;20036;-72
2022/03/14 06:47:28;;;;;;;10.93;6.72;;;8.60;99.90;;;;;;5052893;28;20052;-72
2022/03/14 06:49:54;;;;;;;12.52;7.03;;;8.60;99.90;;;;;;5053570;28;20086;-73
2022/03/14 06:52:21;;;;;;;12.77;7.15;;;8.60;99.90;;;;;;5049796;28;20048;-72
2022/03/14 06:54:47;;;;;;;12.30;7.47;;;8.60;99.90;;;;;;5070039;28;20479;-72
2022/03/14 06:57:13;;;;;;;11.52;6.88;;;8.60;99.90;;;;;;5071156;28;20076;-73
2022/03/14 06:59:39;;;;;;;10.80;7.10;;;8.70;99.90;;;;;;5069765;28;20052;-71
2022/03/14 07:02:05;;;;;;;11.43;7.03;;;8.60;99.90;;;;;;5067280;28;20040;-72
2022/03/14 07:04:33;;;;;;;11.43;7.38;;;8.70;99.90;;;;;;5053747;28;20060;-71
2022/03/14 07:07:03;;;;;;;11.20;7.15;;;8.70;99.90;;;;;;5053048;28;20041;-72
2022/03/14 07:09:30;;;;;;;11.70;7.20;;;8.60;99.90;;;;;;5067630;28;20044;-72
2022/03/14 07:11:56;;;;;;;12.27;7.63;;;8.60;99.90;;;;;;5067543;28;20039;-72
2022/03/14 07:14:23;;;;;;;14.80;8.38;;;8.60;99.90;;;;;;5037918;28;20464;-72
2022/03/14 07:16:50;;;;;;;13.75;7.65;;;8.60;99.90;;;;;;5041579;28;20053;-73
2022/03/14 07:19:16;;;;;;;11.43;7.88;;;8.60;99.90;;;;;;5046627;28;20128;-72
2022/03/14 07:21:42;;;;;;;12.70;7.68;;;8.70;99.90;;;;;;5067164;28;20063;-73
2022/03/14 07:24:09;;;;;;;12.85;8.05;;;8.70;99.90;;;;;;5040739;28;20033;-72
2022/03/14 07:26:35;;;;;;;11.82;8.00;;;8.60;99.90;;;;;;5066232;28;20120;-73
2022/03/14 07:29:01;;;;;;;17.05;8.90;;;8.60;99.90;;;;;;5068528;28;20123;-72
2022/03/14 07:31:27;;;;;;;14.43;8.65;;;8.60;99.90;;;;;;5070701;28;20748;-72
2022/03/14 07:33:53;;;;;;;13.65;7.65;;;8.60;99.90;;;;;;5067853;28;20054;-73
2022/03/14 07:36:19;;;;;;;14.35;8.02;;;8.70;99.90;;;;;;5053062;28;20048;-73
2022/03/14 07:38:46;;;;;;;13.38;8.13;;;8.70;99.90;;;;;;5067369;28;20111;-72
2022/03/14 07:41:12;;;;;;;12.70;7.85;;;8.60;99.90;;;;;;5070130;28;20070;-72
2022/03/14 07:43:39;;;;;;;13.70;8.05;;;8.70;99.90;;;;;;5062876;28;20380;-75
2022/03/14 07:46:05;;;;;;;15.27;8.38;;;8.70;99.90;;;;;;5049809;28;20051;-75
2022/03/14 07:48:31;;;;;;;16.52;9.35;;;8.70;99.90;;;;;;5052761;28;20048;-75
2022/03/14 07:50:57;;;;;;;15.32;9.02;;;8.70;99.90;;;;;;5069477;28;20476;-72
2022/03/14 07:53:24;;;;;;;13.75;8.65;;;8.70;99.90;;;;;;5064860;28;20374;-72
2022/03/14 07:55:50;;;;;;;14.32;8.65;;;8.80;99.90;;;;;;5069116;28;20047;-72
2022/03/14 07:58:16;;;;;;;15.60;8.45;;;8.70;99.90;;;;;;5068156;28;20049;-72
2022/03/14 08:00:42;;;;;;;13.70;8.68;;;8.80;99.90;;;;;;5052297;28;20051;-72
2022/03/14 08:03:08;;;;;;;13.52;8.93;;;8.80;99.90;;;;;;5066261;28;20044;-72
2022/03/14 08:05:34;;;;;;;15.18;8.55;;;8.80;99.90;;;;;;5054574;28;20044;-72
2022/03/14 08:08:02;;;;;;;16.38;9.70;;;8.80;99.90;;;;;;5054320;28;20036;-72
2022/03/14 08:10:29;;;;;;;14.50;8.93;;;8.80;99.90;;;;;;5071021;28;20048;-72
2022/03/14 08:12:57;;;;;;;15.00;8.88;;;8.80;99.90;;;;;;5045650;28;20083;-72
2022/03/14 08:15:28;;;;;;;14.27;8.82;;;8.80;99.90;;;;;;5053892;28;20140;-73
2022/03/14 08:17:55;;;;;;;14.57;8.48;;;8.80;99.90;;;;;;5071104;28;20051;-72
2022/03/14 08:20:23;;;;;;;12.95;8.60;;;8.80;99.90;;;;;;5086754;28;20036;-72
2022/03/14 08:22:50;;;;;;;13.90;9.25;;;8.90;99.90;;;;;;5066959;28;20040;-72
2022/03/14 08:25:16;;;;;;;14.95;8.88;;;8.90;99.90;;;;;;5044346;28;20044;-72
2022/03/14 08:27:42;;;;;;;16.27;8.40;;;8.90;99.90;;;;;;5053447;28;20366;-72
2022/03/14 08:30:08;;;;;;;15.77;9.27;;;8.90;99.90;;;;;;5067237;28;20047;-72
2022/03/14 08:32:35;;;;;;;15.27;8.55;;;8.90;99.90;;;;;;5064982;28;20423;-72
2022/03/14 08:35:07;;;;;;;13.18;8.77;;;9.00;99.90;;;;;;5088127;28;20044;-72
2022/03/14 08:37:36;;;;;;;14.98;8.40;;;8.90;99.90;;;;;;5087931;28;20592;-72
2022/03/14 08:40:07;;;;;;;15.82;8.88;;;9.00;99.90;;;;;;5052113;28;20052;-72
2022/03/14 08:42:34;;;;;;;17.30;9.27;;;9.00;99.90;;;;;;5039909;28;20040;-72
2022/03/14 08:45:00;;;;;;;15.98;8.93;;;9.00;99.90;;;;;;5099320;28;20075;-71
2022/03/14 08:47:26;;;;;;;15.10;9.32;;;8.90;99.90;;;;;;5101266;28;20055;-72
2022/03/14 08:49:52;;;;;;;16.60;9.13;;;9.00;99.90;;;;;;5070022;28;20037;-72
2022/03/14 08:52:18;;;;;;;15.15;9.10;;;9.00;99.90;;;;;;5045772;28;20178;-72
2022/03/14 08:54:44;;;;;;;12.82;7.85;;;9.00;99.90;;;;;;5047325;28;20056;-73
2022/03/14 08:57:10;;;;;;;15.88;9.45;;;9.00;99.90;;;;;;5031164;28;20041;-72
2022/03/14 08:59:36;;;;;;;15.38;8.85;;;9.10;99.90;;;;;;5031466;28;20049;-72
2022/03/14 09:02:03;;;;;;;13.90;9.05;;;9.00;99.90;;;;;;5086208;28;20752;-72
2022/03/14 09:04:29;;;;;;;14.77;9.10;;;9.10;99.90;;;;;;5066621;28;20473;-72
2022/03/14 09:06:55;;;;;;;15.80;9.43;;;9.10;99.90;;;;;;5053518;28;20048;-73
2022/03/14 09:09:21;;;;;;;16.55;9.32;;;9.10;99.90;;;;;;5068811;28;20051;-72
2022/03/14 09:11:47;;;;;;;15.05;9.07;;;9.10;99.90;;;;;;5057407;28;20040;-72
2022/03/14 09:14:13;;;;;;;15.13;9.60;;;9.10;99.90;;;;;;5041550;28;20102;-72
2022/03/14 09:16:39;;;;;;;14.23;8.95;;;9.20;99.90;;;;;;5075422;28;20100;-72
2022/03/14 09:19:05;;;;;;;14.88;8.75;;;9.20;99.90;;;;;;5048898;28;20076;-72
2022/03/14 09:21:32;;;;;;;17.17;9.80;;;9.20;99.90;;;;;;5058459;28;20473;-72
2022/03/14 09:23:58;;;;;;;15.98;10.02;;;9.20;99.90;;;;;;5093370;28;20043;-72
2022/03/14 09:26:24;;;;;;;16.27;9.50;;;9.30;99.90;;;;;;5068500;28;20044;-72
2022/03/14 09:28:50;;;;;;;17.13;9.95;;;9.40;99.90;;;;;;5064214;28;20522;-79
2022/03/14 09:31:17;;;;;;;19.02;10.18;;;9.40;99.90;;;;;;5041221;28;20696;-78
2022/03/14 09:33:43;;;;;;;15.00;9.57;;;9.40;99.90;;;;;;5055530;28;20043;-76
2022/03/14 09:36:09;;;;;;;15.82;10.18;;;9.40;99.90;;;;;;5055595;28;20122;-77
2022/03/14 09:38:35;;;;;;;16.02;9.95;;;9.50;99.90;;;;;;5065966;28;20033;-82
2022/03/14 09:41:03;;;;;;;17.08;10.60;;;9.50;99.90;;;;;;5046978;28;20044;-79
2022/03/14 09:43:36;;;;;;;15.98;10.25;;;9.60;99.90;;;;;;5059144;28;20124;-79
2022/03/14 09:46:05;;;;;;;17.10;10.15;;;9.60;99.90;;;;;;5054326;28;20056;-78
2022/03/14 09:48:36;;;;;;;16.40;10.32;;;9.60;99.90;;;;;;5048191;28;20059;-84
2022/03/14 09:51:03;;;;;;;16.10;9.98;;;9.60;99.90;;;;;;5072431;28;20106;-82
2022/03/14 09:53:32;;;;;;;18.42;10.68;;;9.60;99.90;;;;;;5067352;28;20082;-83
2022/03/14 09:55:58;;;;;;;17.77;10.40;;;9.60;99.90;;;;;;5061054;28;20052;-85
2022/03/14 09:58:24;;;;;;;17.58;11.20;;;9.60;99.90;;;;;;5088178;28;20603;-78
2022/03/14 10:00:50;;;;;;;16.75;11.07;;;9.60;99.90;;;;;;5080823;28;20567;-79
2022/03/14 10:03:18;;;;;;;16.80;11.15;;;9.60;99.90;;;;;;5092344;28;20048;-75
2022/03/14 10:05:44;;;;;;;16.90;11.38;;;9.60;99.90;;;;;;5054860;28;20078;-72
2022/03/14 10:08:12;;;;;;;18.10;10.77;;;9.60;99.90;;;;;;5056322;28;20068;-72
2022/03/14 10:10:38;;;;;;;17.70;10.32;;;9.60;99.90;;;;;;5111400;28;20048;-72
2022/03/14 10:13:10;;;;;;;18.48;11.23;;;9.60;99.90;;;;;;5102089;28;20039;-72
2022/03/14 10:15:40;;;;;;;19.98;12.23;;;9.60;99.90;;;;;;5090842;28;20473;-72
2022/03/14 10:18:24;;;;;;;19.85;12.15;;;9.60;99.90;;;;;;5055149;28;20044;-72
2022/03/14 10:21:05;;;;;;;20.58;11.60;;;9.60;99.90;;;;;;5057182;28;20142;-72
2022/03/14 10:23:44;;;;;;;18.17;11.63;;;9.60;99.90;;;;;;5096356;28;20571;-72
2022/03/14 10:26:16;;;;;;;20.90;11.93;;;9.60;99.90;;;;;;5060983;28;20136;-71
2022/03/14 10:28:48;;;;;;;18.75;11.20;;;9.70;99.90;;;;;;5070288;28;20047;-74
2022/03/14 10:31:15;;;;;;;19.10;11.80;;;9.60;99.90;;;;;;5077255;28;20078;-73
2022/03/14 10:33:41;;;;;;;18.95;11.13;;;9.60;99.90;;;;;;5078320;28;20072;-71
2022/03/14 10:36:07;;;;;;;19.25;11.63;;;9.70;99.90;;;;;;5074278;28;20044;-71
2022/03/14 10:38:43;;;;;;;16.13;10.70;;;9.70;99.90;;;;;;5073454;28;20437;-71
2022/03/14 10:41:14;;;;;;;17.23;10.95;;;9.70;99.90;;;;;;5053789;28;20040;-72
2022/03/14 10:43:42;;;;;;;18.45;11.45;;;9.70;99.90;;;;;;5049622;28;20045;-69
2022/03/14 10:46:08;;;;;;;17.05;11.15;;;9.70;99.90;;;;;;5055944;28;20120;-70
2022/03/14 10:48:41;;;;;;;16.10;10.82;;;9.70;99.90;;;;;;5072093;28;20044;-70
2022/03/14 10:51:09;;;;;;;18.73;11.60;;;9.70;99.90;;;;;;5069137;28;20420;-73
2022/03/14 10:53:46;;;;;;;20.42;12.18;;;9.80;99.90;;;;;;5055065;28;20047;-70
2022/03/14 10:56:13;;;;;;;17.85;10.65;;;9.80;99.90;;;;;;5073046;28;20119;-70
2022/03/14 10:58:39;;;;;;;17.75;10.48;;;9.80;99.90;;;;;;5054617;28;20484;-75
2022/03/14 11:01:08;;;;;;;23.15;13.00;;;9.70;99.90;;;;;;5039949;28;20048;-74
2022/03/14 11:03:42;;;;;;;18.33;10.90;;;9.80;99.90;;;;;;5071115;28;20370;-73
2022/03/14 11:06:10;;;;;;;22.25;10.57;;;9.60;99.90;;;;;;5063715;28;20048;-71
2022/03/14 11:08:36;;;;;;;20.55;9.80;;;9.60;99.90;;;;;;5080400;28;20043;-73
2022/03/14 11:11:08;;;;;;;15.30;8.48;;;9.60;99.90;;;;;;5073113;28;20041;-73
2022/03/14 11:13:47;;;;;;;18.95;8.23;;;9.50;99.90;;;;;;5055158;28;20081;-72
2022/03/14 11:16:30;;;;;;;17.33;8.25;;;9.50;99.90;;;;;;5056375;28;20099;-80
2022/03/14 11:18:57;;;;;;;18.83;9.05;;;9.50;99.90;;;;;;5054007;28;20052;-72
2022/03/14 11:21:25;;;;;;;20.10;8.88;;;9.50;99.90;;;;;;5049295;28;20044;-71
2022/03/14 11:23:53;;;;;;;21.13;9.77;;;9.50;99.90;;;;;;5070391;28;20380;-72
2022/03/14 11:26:22;;;;;;;23.60;10.45;;;9.60;99.90;;;;;;5072431;28;20053;-72
2022/03/14 11:28:49;;;;;;;20.52;10.02;;;9.60;99.90;;;;;;5049301;28;20040;-71
2022/03/14 11:31:19;;;;;;;22.58;10.38;;;9.60;99.90;;;;;;5061229;28;20386;-72
2022/03/14 11:33:46;;;;;;;22.60;10.10;;;9.70;99.90;;;;;;5086029;28;20119;-72
2022/03/14 11:36:12;;;;;;;22.88;10.68;;;9.70;99.90;;;;;;5040550;28;20035;-72
2022/03/14 11:38:39;;;;;;;22.90;9.32;;;9.70;99.90;;;;;;5070406;28;20040;-72
2022/03/14 11:41:05;;;;;;;25.85;10.23;;;9.70;99.90;;;;;;5054259;28;20079;-72
2022/03/14 11:43:31;;;;;;;24.70;9.27;;;9.70;99.90;;;;;;5071926;28;20050;-72
2022/03/14 11:46:00;;;;;;;21.38;10.07;;;9.70;99.90;;;;;;5051685;28;20044;-74
2022/03/14 11:48:31;;;;;;;22.42;10.32;;;9.70;99.90;;;;;;5069033;28;20045;-76
2022/03/14 11:50:59;;;;;;;22.80;9.67;;;9.70;99.90;;;;;;5067747;28;20380;-72
2022/03/14 11:53:31;;;;;;;23.40;10.02;;;9.70;99.90;;;;;;5039801;28;20291;-74
2022/03/14 11:56:00;;;;;;;23.55;10.32;;;9.70;99.90;;;;;;5065468;28;20145;-75
2022/03/14 11:58:34;;;;;;;24.92;10.30;;;9.60;99.90;;;;;;5080708;28;20044;-81
2022/03/14 12:01:25;;;;;;;21.73;9.20;;;9.60;99.90;;;;;;5074448;28;20041;-76
2022/03/14 12:04:10;;;;;;;21.75;8.95;;;9.60;99.90;;;;;;5048303;28;20085;-76
2022/03/14 12:06:45;;;;;;;21.20;8.23;;;9.60;99.90;;;;;;5034985;28;20481;-76
2022/03/14 12:09:24;;;;;;;22.30;9.77;;;9.60;99.90;;;;;;5068738;28;20085;-73
2022/03/14 12:11:54;;;;;;;22.27;10.05;;;9.70;99.90;;;;;;5060558;28;20050;-73
2022/03/14 12:14:50;;;;;;;29.08;12.23;;;9.70;99.90;;;;;;5054343;28;20131;-71
2022/03/14 12:17:16;;;;;;;28.58;11.35;;;9.70;99.90;;;;;;5069921;28;20127;-71
2022/03/14 12:19:50;;;;;;;26.58;11.70;;;9.70;99.90;;;;;;5068896;28;20663;-72
2022/03/14 12:22:29;;;;;;;27.95;10.82;;;9.70;99.90;;;;;;5045460;28;20517;-71
2022/03/14 12:24:56;;;;;;;20.42;8.68;;;9.70;99.90;;;;;;5064393;28;20062;-71
2022/03/14 12:27:31;;;;;;;23.05;10.20;;;9.70;99.90;;;;;;5087670;28;20048;-74
2022/03/14 12:30:05;;;;;;;21.00;8.80;;;9.80;99.90;;;;;;5070148;28;20112;-80
2022/03/14 12:32:35;;;;;;;21.40;9.25;;;9.80;99.90;;;;;;5054510;28;20514;-71
2022/03/14 12:35:16;;;;;;;25.30;10.68;;;9.80;99.90;;;;;;5050982;28;20346;-70
2022/03/14 12:37:43;;;;;;;27.90;10.95;;;9.80;99.90;;;;;;5080585;28;20375;-70
2022/03/14 12:40:21;;;;;;;26.88;11.73;;;9.80;99.90;;;;;;5069083;28;20044;-70
2022/03/14 12:42:48;;;;;;;27.75;11.70;;;9.80;99.90;;;;;;5070225;28;20044;-70
2022/03/14 12:45:44;;;;;;;27.00;10.65;;;9.80;99.90;;;;;;5054257;28;20053;-71